createdAt,value
2023-01-29T00:01:13.751Z,102238.38
2023-01-29T00:03:43.409Z,102238.38
2023-01-29T00:06:15.769Z,102235.09
2023-01-29T00:08:45.205Z,102224.94
2023-01-29T00:11:14.730Z,102220.94
2023-01-29T00:13:44.449Z,102220.94
2023-01-29T00:16:13.859Z,102217.66
2023-01-29T00:18:44.055Z,102213.47
2023-01-29T00:21:18.089Z,102200.78
2023-01-29T00:23:47.650Z,102191.47
2023-01-29T00:26:17.644Z,102181.47
2023-01-29T00:28:47.094Z,102181.47
2023-01-29T00:31:20.266Z,102176.69
2023-01-29T00:33:50.083Z,102174.03
2023-01-29T00:36:23.274Z,102167.75
2023-01-29T00:38:58.577Z,102171.31
2023-01-29T00:41:42.471Z,102172.53
2023-01-29T00:44:24.611Z,102177.78
2023-01-29T00:46:54.828Z,102167.44
2023-01-29T00:49:24.310Z,102167.75
2023-01-29T00:52:08.805Z,102177.22
2023-01-29T00:54:38.418Z,102189.91
2023-01-29T00:57:07.843Z,102186.00
2023-01-29T00:59:37.232Z,102179.00
2023-01-29T01:02:19.272Z,102183.16
2023-01-29T01:04:48.844Z,102180.38
2023-01-29T01:07:20.827Z,102175.59
2023-01-29T01:10:02.758Z,102175.59
2023-01-29T01:12:32.366Z,102177.09
2023-01-29T01:15:01.741Z,102172.94
2023-01-29T01:17:31.103Z,102174.09
2023-01-29T01:20:00.589Z,102167.56
2023-01-29T01:22:32.723Z,102172.06
2023-01-29T01:25:02.175Z,102171.91
2023-01-29T01:27:32.202Z,102174.31
2023-01-29T01:30:01.671Z,102186.72
2023-01-29T01:32:31.475Z,102187.38
2023-01-29T01:35:00.896Z,102172.41
2023-01-29T01:37:33.030Z,102178.06
2023-01-29T01:40:03.733Z,102175.22
2023-01-29T01:42:33.358Z,102181.19
2023-01-29T01:45:05.472Z,102184.66
2023-01-29T01:47:38.525Z,102182.53
2023-01-29T01:50:11.916Z,102189.41
2023-01-29T01:52:46.697Z,102185.97
2023-01-29T01:55:17.692Z,102191.06
2023-01-29T01:57:49.161Z,102198.13
2023-01-29T02:00:21.461Z,102197.94
2023-01-29T02:03:03.805Z,102200.78
2023-01-29T02:05:48.916Z,102208.28
2023-01-29T02:08:35.600Z,102207.72
2023-01-29T02:11:05.032Z,102206.31
2023-01-29T02:13:34.458Z,102202.88
2023-01-29T02:16:03.865Z,102202.63
2023-01-29T02:18:38.002Z,102202.88
2023-01-29T02:21:25.055Z,102204.09
2023-01-29T02:24:08.004Z,102188.25
2023-01-29T02:26:46.794Z,102193.50
2023-01-29T02:29:28.836Z,102182.09
2023-01-29T02:32:10.653Z,102173.00
2023-01-29T02:34:56.664Z,102194.25
2023-01-29T02:37:31.865Z,102175.38
2023-01-29T02:40:10.234Z,102173.63
2023-01-29T02:42:43.837Z,102178.13
2023-01-29T02:45:18.856Z,102173.78
2023-01-29T02:47:51.318Z,102173.19
2023-01-29T02:50:23.216Z,102165.56
2023-01-29T02:52:59.548Z,102172.28
2023-01-29T02:55:33.426Z,102170.50
2023-01-29T02:58:08.156Z,102167.19
2023-01-29T03:00:42.964Z,102151.19
2023-01-29T03:03:16.308Z,102150.31
2023-01-29T03:05:53.448Z,102139.53
2023-01-29T03:08:25.196Z,102139.22
2023-01-29T03:10:57.273Z,102133.38
2023-01-29T03:13:33.079Z,102136.25
2023-01-29T03:16:09.198Z,102132.03
2023-01-29T03:18:45.987Z,102128.78
2023-01-29T03:21:36.237Z,102134.75
2023-01-29T03:24:20.031Z,102130.13
2023-01-29T03:27:02.278Z,102122.78
2023-01-29T03:29:46.190Z,102118.16
2023-01-29T03:32:19.213Z,102127.56
2023-01-29T03:34:52.265Z,102130.13
2023-01-29T03:37:26.679Z,102122.66
2023-01-29T03:39:56.106Z,102121.59
2023-01-29T03:42:30.079Z,102115.03
2023-01-29T03:45:03.746Z,102121.91
2023-01-29T03:47:44.768Z,102121.47
2023-01-29T03:50:22.799Z,102124.03
2023-01-29T03:52:54.164Z,102117.56
2023-01-29T03:55:27.384Z,102113.22
2023-01-29T03:58:00.956Z,102121.03
2023-01-29T04:00:32.448Z,102119.81
2023-01-29T04:03:09.714Z,102123.41
2023-01-29T04:05:43.039Z,102108.13
2023-01-29T04:08:15.846Z,102117.91
2023-01-29T04:10:46.601Z,102117.56
2023-01-29T04:13:16.682Z,102125.94
2023-01-29T04:15:49.707Z,102118.31
2023-01-29T04:18:21.661Z,102120.09
2023-01-29T04:20:51.148Z,102114.44
2023-01-29T04:23:25.224Z,102130.72
2023-01-29T04:26:07.254Z,102123.81
2023-01-29T04:28:49.391Z,102122.34
2023-01-29T04:31:19.334Z,102121.75
2023-01-29T04:33:58.564Z,102121.88
2023-01-29T04:36:34.684Z,102121.28
2023-01-29T04:39:12.049Z,102120.84
2023-01-29T04:41:46.974Z,102124.56
2023-01-29T04:44:20.633Z,102125.50
2023-01-29T04:46:52.510Z,102129.25
2023-01-29T04:49:32.676Z,102128.16
2023-01-29T04:52:06.710Z,102119.81
2023-01-29T04:54:45.903Z,102129.66
2023-01-29T04:57:23.169Z,102119.81
2023-01-29T04:59:56.330Z,102120.25
2023-01-29T05:02:27.612Z,102120.81
2023-01-29T05:05:01.160Z,102101.22
2023-01-29T05:07:33.199Z,102098.53
2023-01-29T05:10:03.359Z,102098.84
2023-01-29T05:12:33.358Z,102092.69
2023-01-29T05:15:05.293Z,102103.31
2023-01-29T05:17:34.772Z,102085.34
2023-01-29T05:20:07.664Z,102091.78
2023-01-29T05:22:39.051Z,102084.56
2023-01-29T05:25:24.285Z,102094.00
2023-01-29T05:28:08.329Z,102098.19
2023-01-29T05:30:39.315Z,102092.19
2023-01-29T05:33:15.373Z,102091.16
2023-01-29T05:35:47.508Z,102075.00
2023-01-29T05:38:17.758Z,102085.03
2023-01-29T05:40:47.292Z,102085.91
2023-01-29T05:43:18.364Z,102083.66
2023-01-29T05:45:55.165Z,102091.28
2023-01-29T05:48:24.806Z,102085.28
2023-01-29T05:50:56.873Z,102104.00
2023-01-29T05:53:26.319Z,102094.25
2023-01-29T05:55:57.235Z,102097.53
2023-01-29T05:58:26.635Z,102097.84
2023-01-29T06:00:56.137Z,102105.03
2023-01-29T06:03:25.569Z,102086.94
2023-01-29T06:05:57.550Z,102086.19
2023-01-29T06:08:26.914Z,102102.66
2023-01-29T06:10:56.352Z,102099.50
2023-01-29T06:13:25.762Z,102085.00
2023-01-29T06:15:55.265Z,102075.41
2023-01-29T06:18:24.830Z,102085.72
2023-01-29T06:20:56.898Z,102084.09
2023-01-29T06:23:26.307Z,102068.22
2023-01-29T06:25:55.695Z,102052.66
2023-01-29T06:28:25.078Z,102064.63
2023-01-29T06:30:54.556Z,102053.53
2023-01-29T06:33:23.971Z,102048.91
2023-01-29T06:36:01.112Z,102039.50
2023-01-29T06:38:31.008Z,102034.28
2023-01-29T06:41:00.787Z,102045.16
2023-01-29T06:43:30.191Z,102044.91
2023-01-29T06:46:00.730Z,102046.38
2023-01-29T06:48:30.176Z,102033.53
2023-01-29T06:51:04.792Z,102031.13
2023-01-29T06:53:35.602Z,102042.63
2023-01-29T06:56:05.205Z,102052.19
2023-01-29T06:58:34.692Z,102053.88
2023-01-29T07:01:08.177Z,102057.16
2023-01-29T07:03:38.200Z,102053.69
2023-01-29T07:06:10.894Z,102052.19
2023-01-29T07:08:40.764Z,102052.06
2023-01-29T07:11:10.694Z,102061.63
2023-01-29T07:13:40.204Z,102073.63
2023-01-29T07:16:10.223Z,102068.53
2023-01-29T07:18:40.081Z,102077.78
2023-01-29T07:21:12.095Z,102079.28
2023-01-29T07:23:41.732Z,102081.25
2023-01-29T07:26:11.233Z,102093.03
2023-01-29T07:28:41.423Z,102093.34
2023-01-29T07:31:12.029Z,102085.88
2023-01-29T07:33:41.723Z,102097.25
2023-01-29T07:36:14.811Z,102079.31
2023-01-29T07:38:44.400Z,102086.19
2023-01-29T07:41:14.597Z,102083.50
2023-01-29T07:43:44.023Z,102090.97
2023-01-29T07:46:13.537Z,102093.66
2023-01-29T07:48:42.994Z,102104.41
2023-01-29T07:51:17.084Z,102105.91
2023-01-29T07:53:47.246Z,102109.22
2023-01-29T07:56:16.638Z,102120.84
2023-01-29T07:58:46.129Z,102116.09
2023-01-29T08:01:15.595Z,102125.91
2023-01-29T08:03:45.039Z,102117.72
2023-01-29T08:06:17.061Z,102116.91
2023-01-29T08:08:46.478Z,102119.03
2023-01-29T08:11:15.896Z,102116.84
2023-01-29T08:13:46.652Z,102112.78
2023-01-29T08:16:16.198Z,102115.50
2023-01-29T08:18:47.900Z,102122.97
2023-01-29T08:21:20.063Z,102120.59
2023-01-29T08:23:49.448Z,102121.31
2023-01-29T08:26:19.026Z,102116.38
2023-01-29T08:28:48.459Z,102128.03
2023-01-29T08:31:19.499Z,102121.91
2023-01-29T08:33:49.049Z,102117.88
2023-01-29T08:36:21.012Z,102116.09
2023-01-29T08:38:50.425Z,102121.16
2023-01-29T08:41:19.887Z,102111.00
2023-01-29T08:43:49.392Z,102112.63
2023-01-29T08:46:18.905Z,102114.59
2023-01-29T08:48:48.338Z,102109.50
2023-01-29T08:51:18.603Z,102100.53
2023-01-29T08:53:50.752Z,102095.78
2023-01-29T08:56:21.086Z,102099.97
2023-01-29T08:58:50.534Z,102105.03
2023-01-29T09:01:20.165Z,102097.41
2023-01-29T09:03:50.301Z,102104.28
2023-01-29T09:06:19.780Z,102111.63
2023-01-29T09:08:51.738Z,102101.28
2023-01-29T09:11:21.212Z,102096.66
2023-01-29T09:13:50.577Z,102095.78
2023-01-29T09:16:20.044Z,102085.03
2023-01-29T09:18:49.456Z,102077.84
2023-01-29T09:21:18.873Z,102084.16
2023-01-29T09:23:50.883Z,102077.56
2023-01-29T09:26:20.291Z,102069.06
2023-01-29T09:28:49.997Z,102052.75
2023-01-29T09:31:19.570Z,102060.09
2023-01-29T09:33:49.129Z,102043.50
2023-01-29T09:36:18.555Z,102038.56
2023-01-29T09:38:47.975Z,102042.56
2023-01-29T09:41:29.904Z,102030.94
2023-01-29T09:44:02.612Z,102030.63
2023-01-29T09:46:36.703Z,102027.31
2023-01-29T09:49:10.661Z,102005.63
2023-01-29T09:51:43.429Z,101988.75
2023-01-29T09:54:19.166Z,101974.34
2023-01-29T09:56:53.741Z,101958.66
2023-01-29T09:59:25.178Z,101949.53
2023-01-29T10:02:02.555Z,101928.44
2023-01-29T10:04:59.928Z,101913.19
2023-01-29T10:08:01.332Z,101906.75
2023-01-29T10:10:38.204Z,101899.84
2023-01-29T10:13:20.481Z,101891.94
2023-01-29T10:16:01.345Z,101885.31
2023-01-29T10:18:48.884Z,101873.50
2023-01-29T10:21:27.840Z,101862.16
2023-01-29T10:24:00.435Z,101845.63
2023-01-29T10:26:30.489Z,101850.13
2023-01-29T10:29:04.793Z,101844.16
2023-01-29T10:31:38.667Z,101837.56
2023-01-29T10:34:13.345Z,101848.66
2023-01-29T10:36:45.415Z,101851.31
2023-01-29T10:39:20.583Z,101841.13
2023-01-29T10:42:05.780Z,101833.66
2023-01-29T10:44:49.506Z,101839.66
2023-01-29T10:47:30.548Z,101830.97
2023-01-29T10:50:08.653Z,101828.41
2023-01-29T10:52:45.822Z,101819.88
2023-01-29T10:55:26.886Z,101819.56
2023-01-29T10:58:04.102Z,101806.09
2023-01-29T11:00:38.938Z,101826.44
2023-01-29T11:03:27.469Z,101800.94
2023-01-29T11:06:02.515Z,101804.88
2023-01-29T11:08:37.350Z,101813.13
2023-01-29T11:11:10.105Z,101817.47
2023-01-29T11:13:43.618Z,101812.38
2023-01-29T11:16:16.139Z,101821.94
2023-01-29T11:18:54.074Z,101818.38
2023-01-29T11:21:24.572Z,101820.47
2023-01-29T11:23:54.653Z,101822.84
2023-01-29T11:26:25.183Z,101819.56
2023-01-29T11:28:56.913Z,101820.47
2023-01-29T11:31:30.469Z,101813.09
2023-01-29T11:34:07.177Z,101813.84
2023-01-29T11:36:39.710Z,101820.47
2023-01-29T11:39:16.825Z,101823.44
2023-01-29T11:41:48.007Z,101808.44
2023-01-29T11:44:21.777Z,101814.44
2023-01-29T11:46:53.750Z,101823.41
2023-01-29T11:49:27.489Z,101827.16
2023-01-29T11:51:58.310Z,101816.22
2023-01-29T11:54:32.228Z,101819.81
2023-01-29T11:57:02.007Z,101818.00
2023-01-29T11:59:39.876Z,101817.41
2023-01-29T12:02:22.990Z,101824.59
2023-01-29T12:04:52.779Z,101824.44
2023-01-29T12:07:22.579Z,101826.72
2023-01-29T12:09:55.276Z,101816.53
2023-01-29T12:12:32.296Z,101818.63
2023-01-29T12:15:25.159Z,101824.63
2023-01-29T12:18:01.723Z,101821.34
2023-01-29T12:20:36.231Z,101817.16
2023-01-29T12:23:11.932Z,101823.00
2023-01-29T12:25:46.665Z,101809.38
2023-01-29T12:28:25.131Z,101805.47
2023-01-29T12:31:03.975Z,101805.19
2023-01-29T12:33:42.301Z,101796.78
2023-01-29T12:36:17.215Z,101790.53
2023-01-29T12:38:47.830Z,101787.22
2023-01-29T12:41:28.198Z,101762.94
2023-01-29T12:43:59.272Z,101770.59
2023-01-29T12:46:31.441Z,101763.53
2023-01-29T12:49:06.436Z,101759.47
2023-01-29T12:51:39.292Z,101740.00
2023-01-29T12:54:10.553Z,101745.25
2023-01-29T12:56:42.423Z,101741.94
2023-01-29T12:59:18.029Z,101734.56
2023-01-29T13:01:51.050Z,101744.00
2023-01-29T13:04:32.325Z,101735.88
2023-01-29T13:07:12.236Z,101737.69
2023-01-29T13:09:44.957Z,101733.75
2023-01-29T13:12:17.031Z,101732.59
2023-01-29T13:14:49.533Z,101740.97
2023-01-29T13:17:24.311Z,101738.59
2023-01-29T13:19:58.224Z,101731.72
2023-01-29T13:22:29.656Z,101739.47
2023-01-29T13:25:05.199Z,101746.38
2023-01-29T13:27:37.007Z,101740.22
2023-01-29T13:30:07.975Z,101749.66
2023-01-29T13:32:38.814Z,101742.56
2023-01-29T13:35:17.443Z,101754.44
2023-01-29T13:37:51.449Z,101744.09
2023-01-29T13:40:27.473Z,101744.84
2023-01-29T13:43:00.255Z,101741.53
2023-01-29T13:45:35.702Z,101754.56
2023-01-29T13:48:13.105Z,101751.13
2023-01-29T13:50:45.916Z,101746.94
2023-01-29T13:53:24.230Z,101740.31
2023-01-29T13:55:53.942Z,101743.88
2023-01-29T13:58:56.239Z,101737.00
2023-01-29T14:01:55.721Z,101737.00
2023-01-29T14:04:34.174Z,101737.63
2023-01-29T14:07:41.531Z,101738.84
2023-01-29T14:10:19.080Z,101724.19
2023-01-29T14:12:58.292Z,101723.91
2023-01-29T14:15:33.220Z,101714.50
2023-01-29T14:18:26.339Z,101705.34
2023-01-29T14:21:01.512Z,101692.59
2023-01-29T14:23:44.024Z,101679.56
2023-01-29T14:26:31.639Z,101670.00
2023-01-29T14:29:07.571Z,101665.78
2023-01-29T14:31:44.375Z,101666.06
2023-01-29T14:34:21.431Z,101662.47
2023-01-29T14:36:55.565Z,101638.16
2023-01-29T14:39:33.114Z,101635.63
2023-01-29T14:42:04.000Z,101633.06
2023-01-29T14:44:58.603Z,101634.28
2023-01-29T14:47:56.102Z,101634.91
2023-01-29T14:50:44.893Z,101629.50
2023-01-29T14:53:18.178Z,101618.72
2023-01-29T14:55:54.999Z,101616.16
2023-01-29T14:58:27.748Z,101606.75
2023-01-29T15:00:58.620Z,101603.28
2023-01-29T15:03:39.008Z,101602.25
2023-01-29T15:06:10.629Z,101596.69
2023-01-29T15:08:41.949Z,101583.06
2023-01-29T15:11:30.936Z,101582.91
2023-01-29T15:14:06.368Z,101582.16
2023-01-29T15:16:43.448Z,101577.06
2023-01-29T15:19:18.102Z,101582.81
2023-01-29T15:22:12.336Z,101561.06
2023-01-29T15:24:42.873Z,101564.13
2023-01-29T15:27:18.671Z,101551.88
2023-01-29T15:29:51.464Z,101542.72
2023-01-29T15:32:31.338Z,101537.22
2023-01-29T15:35:02.495Z,101536.47
2023-01-29T15:37:34.434Z,101519.53
2023-01-29T15:40:05.543Z,101525.59
2023-01-29T15:42:49.033Z,101513.69
2023-01-29T15:45:27.465Z,101502.56
2023-01-29T15:47:58.861Z,101499.25
2023-01-29T15:50:28.290Z,101492.50
2023-01-29T15:53:06.837Z,101485.22
2023-01-29T15:55:36.487Z,101473.25
2023-01-29T15:58:09.561Z,101471.09
2023-01-29T16:00:39.104Z,101465.00
2023-01-29T16:03:17.992Z,101459.63
2023-01-29T16:05:47.879Z,101466.78
2023-01-29T16:08:18.114Z,101456.53
2023-01-29T16:10:49.557Z,101457.69
2023-01-29T16:13:25.605Z,101457.69
2023-01-29T16:15:59.612Z,101464.91
2023-01-29T16:18:36.212Z,101459.91
2023-01-29T16:21:09.065Z,101463.69
2023-01-29T16:23:43.081Z,101469.94
2023-01-29T16:26:17.875Z,101472.34
2023-01-29T16:28:50.551Z,101460.91
2023-01-29T16:31:24.699Z,101473.63
2023-01-29T16:33:54.255Z,101471.81
2023-01-29T16:36:24.961Z,101473.47
2023-01-29T16:38:56.778Z,101466.72
2023-01-29T16:41:35.849Z,101473.34
2023-01-29T16:44:34.787Z,101474.88
2023-01-29T16:47:10.763Z,101455.75
2023-01-29T16:49:47.612Z,101456.38
2023-01-29T16:52:22.321Z,101457.13
2023-01-29T16:54:51.717Z,101445.91
2023-01-29T16:57:23.186Z,101430.22
2023-01-29T16:59:57.019Z,101431.13
2023-01-29T17:02:29.191Z,101428.94
2023-01-29T17:05:02.706Z,101419.19
2023-01-29T17:07:32.745Z,101410.63
2023-01-29T17:10:04.274Z,101413.66
2023-01-29T17:12:36.251Z,101394.22
2023-01-29T17:15:34.943Z,101387.97
2023-01-29T17:18:04.766Z,101389.75
2023-01-29T17:20:34.662Z,101381.84
2023-01-29T17:23:05.432Z,101379.44
2023-01-29T17:25:34.892Z,101370.91
2023-01-29T17:28:04.524Z,101369.25
2023-01-29T17:30:37.980Z,101341.25
2023-01-29T17:33:15.535Z,101348.78
2023-01-29T17:35:46.700Z,101352.06
2023-01-29T17:38:25.914Z,101358.69
2023-01-29T17:40:59.364Z,101341.00
2023-01-29T17:43:28.979Z,101335.53
2023-01-29T17:46:01.693Z,101340.09
2023-01-29T17:48:33.129Z,101330.00
2023-01-29T17:51:05.749Z,101325.00
2023-01-29T17:53:45.612Z,101323.75
2023-01-29T17:56:19.942Z,101309.88
2023-01-29T17:58:49.362Z,101298.53
2023-01-29T18:01:21.402Z,101303.97
2023-01-29T18:03:50.921Z,101291.88
2023-01-29T18:06:25.013Z,101289.06
2023-01-29T18:08:54.572Z,101274.56
2023-01-29T18:11:24.020Z,101258.56
2023-01-29T18:13:53.418Z,101263.66
2023-01-29T18:16:26.288Z,101256.03
2023-01-29T18:18:55.985Z,101237.59
2023-01-29T18:21:25.383Z,101232.44
2023-01-29T18:23:54.799Z,101223.75
2023-01-29T18:26:24.979Z,101209.56
2023-01-29T18:28:54.429Z,101202.41
2023-01-29T18:31:26.462Z,101199.13
2023-01-29T18:33:55.872Z,101196.53
2023-01-29T18:36:25.310Z,101200.72
2023-01-29T18:38:54.727Z,101191.22
2023-01-29T18:41:24.184Z,101193.00
2023-01-29T18:43:54.224Z,101176.69
2023-01-29T18:46:26.564Z,101185.72
2023-01-29T18:48:55.948Z,101174.16
2023-01-29T18:51:25.352Z,101187.63
2023-01-29T18:53:55.223Z,101168.81
2023-01-29T18:56:24.844Z,101157.13
2023-01-29T18:58:57.417Z,101146.94
2023-01-29T19:01:29.398Z,101143.25
2023-01-29T19:04:00.332Z,101153.56
2023-01-29T19:06:30.256Z,101149.25
2023-01-29T19:08:59.686Z,101151.88
2023-01-29T19:11:29.099Z,101139.84
2023-01-29T19:13:58.614Z,101139.84
2023-01-29T19:16:30.623Z,101135.38
2023-01-29T19:19:00.001Z,101137.16
2023-01-29T19:21:30.423Z,101124.59
2023-01-29T19:23:59.845Z,101126.38
2023-01-29T19:26:33.850Z,101128.28
2023-01-29T19:29:03.569Z,101126.38
2023-01-29T19:31:35.642Z,101122.16
2023-01-29T19:34:05.112Z,101117.97
2023-01-29T19:36:34.494Z,101113.91
2023-01-29T19:39:03.945Z,101104.50
2023-01-29T19:41:33.408Z,101108.03
2023-01-29T19:44:02.842Z,101104.78
2023-01-29T19:46:34.889Z,101102.09
2023-01-29T19:49:06.713Z,101092.31
2023-01-29T19:51:36.124Z,101094.59
2023-01-29T19:54:05.543Z,101096.38
2023-01-29T19:56:37.105Z,101104.78
2023-01-29T19:59:07.424Z,101112.50
2023-01-29T20:01:39.480Z,101103.09
2023-01-29T20:04:08.895Z,101107.31
2023-01-29T20:06:38.429Z,101101.47
2023-01-29T20:09:08.693Z,101089.50
2023-01-29T20:11:38.127Z,101094.59
2023-01-29T20:14:07.548Z,101096.38
2023-01-29T20:16:39.887Z,101095.84
2023-01-29T20:19:13.645Z,101094.59
2023-01-29T20:21:45.862Z,101081.22
2023-01-29T20:24:15.691Z,101077.03
2023-01-29T20:26:45.276Z,101079.34
2023-01-29T20:29:15.378Z,101070.19
2023-01-29T20:31:47.563Z,101065.88
2023-01-29T20:34:17.137Z,101077.81
2023-01-29T20:36:46.600Z,101056.56
2023-01-29T20:39:16.031Z,101051.63
2023-01-29T20:41:45.414Z,101030.78
2023-01-29T20:44:14.851Z,101033.56
2023-01-29T20:46:46.863Z,101038.50
2023-01-29T20:49:17.283Z,101040.44
2023-01-29T20:51:46.948Z,101042.19
2023-01-29T20:54:16.376Z,101043.09
2023-01-29T20:56:47.262Z,101039.94
2023-01-29T20:59:17.176Z,101039.94
2023-01-29T21:01:49.930Z,101029.00
2023-01-29T21:04:19.360Z,101030.00
2023-01-29T21:06:48.859Z,101011.47
2023-01-29T21:09:18.280Z,101024.41
2023-01-29T21:11:47.752Z,101009.91
2023-01-29T21:14:17.242Z,101015.13
2023-01-29T21:16:49.260Z,101029.50
2023-01-29T21:19:18.794Z,101022.13
2023-01-29T21:21:48.181Z,101017.78
2023-01-29T21:24:18.872Z,101016.66
2023-01-29T21:26:48.320Z,101009.16
2023-01-29T21:29:17.893Z,100998.97
2023-01-29T21:31:49.925Z,101002.53
2023-01-29T21:34:19.325Z,100998.34
2023-01-29T21:36:49.046Z,100991.09
2023-01-29T21:39:24.294Z,100978.34
2023-01-29T21:42:06.774Z,100999.47
2023-01-29T21:44:36.891Z,100987.00
2023-01-29T21:47:12.425Z,100970.97
2023-01-29T21:49:43.254Z,100970.31
2023-01-29T21:52:14.992Z,100981.41
2023-01-29T21:54:48.986Z,100984.94
2023-01-29T21:57:19.104Z,100974.00
2023-01-29T21:59:52.467Z,100988.53
2023-01-29T22:02:26.651Z,100976.16
2023-01-29T22:05:08.753Z,100960.13
2023-01-29T22:07:47.045Z,100965.34
2023-01-29T22:10:17.170Z,100960.50
2023-01-29T22:12:47.283Z,100954.63
2023-01-29T22:15:17.479Z,100936.31
2023-01-29T22:17:49.467Z,100918.16
2023-01-29T22:20:19.480Z,100910.16
2023-01-29T22:22:49.156Z,100905.84
2023-01-29T22:25:20.168Z,100879.28
2023-01-29T22:27:49.642Z,100906.72
2023-01-29T22:30:20.141Z,100876.09
2023-01-29T22:32:52.468Z,100855.47
2023-01-29T22:35:21.894Z,100831.03
2023-01-29T22:37:51.306Z,100816.31
2023-01-29T22:40:21.161Z,100817.19
2023-01-29T22:42:50.678Z,100800.28
2023-01-29T22:45:20.108Z,100794.41
2023-01-29T22:47:52.140Z,100769.25
2023-01-29T22:50:21.813Z,100768.34
2023-01-29T22:52:54.883Z,100749.88
2023-01-29T22:55:24.500Z,100732.94
2023-01-29T22:57:54.036Z,100718.56
2023-01-29T23:00:24.085Z,100703.31
2023-01-29T23:02:56.085Z,100701.03
2023-01-29T23:05:25.657Z,100675.44
2023-01-29T23:07:55.041Z,100659.53
2023-01-29T23:10:24.444Z,100644.47
2023-01-29T23:12:53.857Z,100634.56
2023-01-29T23:15:23.287Z,100622.81
2023-01-29T23:17:52.675Z,100616.19
2023-01-29T23:20:24.772Z,100624.84
2023-01-29T23:22:54.197Z,100583.47
2023-01-29T23:25:43.592Z,100579.25
2023-01-29T23:28:10.491Z,100575.81
2023-01-29T23:30:43.068Z,100566.75
2023-01-29T23:33:12.733Z,100558.47
2023-01-29T23:35:44.705Z,100572.84
2023-01-29T23:38:14.115Z,100555.78
2023-01-29T23:40:43.542Z,100555.78
2023-01-29T23:43:12.952Z,100556.00
2023-01-29T23:45:44.082Z,100561.09
2023-01-29T23:48:13.505Z,100591.88
2023-01-29T23:50:45.543Z,100578.59
2023-01-29T23:53:15.197Z,100570.41
2023-01-29T23:55:44.963Z,100562.00
2023-01-29T23:58:14.478Z,100552.59
